This is the latest recevied weather packets stored in our database for station/object DL4NBA-1. If no packets are shown the sender has not sent any weather packets the latest 10 day(s).
| Time | Temp. | Humidity | Pressure | Rain* | Wind** | Luminosity | Snow |
|---|---|---|---|---|---|---|---|
| 1777743818 | 26.67° C | - | - | 0 mm | 0 m/s | - | - |
| 1777743516 | 26.67° C | - | - | 0 mm | 0 m/s | - | - |
| 1777743217 | 26.67° C | - | - | 0 mm | 0 m/s | - | - |
| 1777742918 | 26.67° C | - | - | 0 mm | 0.45 m/s, 181° | - | - |
| 1777742319 | 30° C | - | - | 0 mm | 0.45 m/s, 167° | - | - |
| 1777742017 | 30° C | - | - | 0 mm | 1.34 m/s, 166° | - | - |
| 1777741418 | 29.44° C | - | - | 0 mm | 0.45 m/s, 132° | - | - |
| 1777741119 | 28.89° C | - | - | 0 mm | 1.34 m/s, 166° | - | - |
| 1777740517 | 28.33° C | - | - | 0 mm | 0.45 m/s, 170° | - | - |
| 1777740218 | 27.22° C | - | - | 0 mm | 1.34 m/s, 198° | - | - |
| 1777739919 | 27.22° C | - | - | 0 mm | 1.34 m/s, 153° | - | - |
| 1777739620 | 27.78° C | - | - | 0 mm | 1.79 m/s, 190° | - | - |
| 1777739321 | 26.67° C | - | - | 0 mm | 2.24 m/s, 200° | - | - |
| 1777738720 | 26.11° C | - | - | 0 mm | 0.45 m/s, 187° | - | - |
| 1777738420 | 26.11° C | - | - | 0 mm | 1.34 m/s, 205° | - | - |
| 1777738120 | 26.11° C | - | - | 0 mm | 2.24 m/s, 204° | - | - |
| 1777737821 | 25.56° C | - | - | 0 mm | 2.68 m/s, 224° | - | - |
| 1777737220 | 26.11° C | - | - | 0 mm | 1.34 m/s, 188° | - | - |
| 1777736920 | 27.22° C | - | - | 0 mm | 1.34 m/s, 152° | - | - |
| 1777736619 | 27.78° C | - | - | 0 mm | 1.79 m/s, 156° | - | - |
| 1777735718 | 27.22° C | - | - | 0 mm | 1.34 m/s, 180° | - | - |
| 1777735418 | 28.89° C | - | - | 0 mm | 1.34 m/s, 148° | - | - |
| 1777735119 | 27.22° C | - | - | 0 mm | 0.45 m/s, 184° | - | - |
| 1777733918 | 29.44° C | - | - | 0 mm | 0 m/s | - | - |
| 1777731218 | 30.56° C | - | - | 0 mm | 2.68 m/s, 131° | - | - |
* Rain latest hour (hover to see other rain measurements)
** Current wind speed in m/s (hover to see current wind gust speed)